Cal Poly University, California
Current Conditions -  °F | °C
As of 5:56 AM on Sunday 21 Dec 2014 (Local Time) from KSBP Reporting Station
Clear Clear  
Wind Chill: 58°   Ceiling: Unl
Heat Index: 58°   Visibility: 10mi
Dew Point: 50°   Wind: 13mph
Humidity: 75%   Direction: 330°NNW
Pressure: 30.23"   Gusts: NA
Location:  35.2979°N, 120.659°W
Report Text: KSBP 211356Z 33011KT 10SM CLR 14/10 A3023 RMK AO2 SLP235 T01440100
Loading
Personal Weather Stations






























Interactive Weather Map New forecast layout! Learn more

10-Day Weather Forecast

Advertisements
Track Severe Weather on mobile